sensor_id;sensor_type;location;lat;lon;timestamp;temperature;humidity
21092;DHT22;10704;42.678;23.288;2024-01-30T00:06:06;-0.50;99.90
21092;DHT22;10704;42.678;23.288;2024-01-30T00:08:32;-0.50;99.90
21092;DHT22;10704;42.678;23.288;2024-01-30T00:10:58;-0.60;99.90
21092;DHT22;10704;42.678;23.288;2024-01-30T00:13:24;-0.60;99.90
21092;DHT22;10704;42.678;23.288;2024-01-30T00:15:50;-0.60;99.90
21092;DHT22;10704;42.678;23.288;2024-01-30T00:18:16;-0.60;99.90
21092;DHT22;10704;42.678;23.288;2024-01-30T00:20:42;-0.40;99.90
21092;DHT22;10704;42.678;23.288;2024-01-30T00:23:08;-0.40;99.90
21092;DHT22;10704;42.678;23.288;2024-01-30T00:25:34;-0.60;99.90
21092;DHT22;10704;42.678;23.288;2024-01-30T00:28:00;-0.60;99.90
21092;DHT22;10704;42.678;23.288;2024-01-30T00:30:27;-0.60;99.90
21092;DHT22;10704;42.678;23.288;2024-01-30T00:32:53;-0.70;99.90
21092;DHT22;10704;42.678;23.288;2024-01-30T00:35:19;-0.70;99.90
21092;DHT22;10704;42.678;23.288;2024-01-30T00:37:47;-0.80;99.90
21092;DHT22;10704;42.678;23.288;2024-01-30T00:40:14;-0.90;99.90
21092;DHT22;10704;42.678;23.288;2024-01-30T00:42:44;-0.90;99.90
21092;DHT22;10704;42.678;23.288;2024-01-30T00:45:15;-1.00;99.90
21092;DHT22;10704;42.678;23.288;2024-01-30T00:47:41;-0.90;99.90
21092;DHT22;10704;42.678;23.288;2024-01-30T00:50:07;-1.00;99.90
21092;DHT22;10704;42.678;23.288;2024-01-30T00:52:33;-0.90;99.90
21092;DHT22;10704;42.678;23.288;2024-01-30T00:55:00;-0.90;99.90
21092;DHT22;10704;42.678;23.288;2024-01-30T00:57:26;-0.90;99.90
21092;DHT22;10704;42.678;23.288;2024-01-30T00:59:52;-0.90;99.90
21092;DHT22;10704;42.678;23.288;2024-01-30T01:02:18;-0.80;99.90
21092;DHT22;10704;42.678;23.288;2024-01-30T01:04:44;-0.80;99.90
21092;DHT22;10704;42.678;23.288;2024-01-30T01:07:11;-0.90;99.90
21092;DHT22;10704;42.678;23.288;2024-01-30T01:09:37;-0.90;99.90
21092;DHT22;10704;42.678;23.288;2024-01-30T01:12:04;-0.90;99.90
21092;DHT22;10704;42.678;23.288;2024-01-30T01:14:30;-0.90;99.90
21092;DHT22;10704;42.678;23.288;2024-01-30T01:16:56;-0.80;99.90
21092;DHT22;10704;42.678;23.288;2024-01-30T01:19:22;-0.90;99.90
21092;DHT22;10704;42.678;23.288;2024-01-30T01:21:49;-0.90;99.90
21092;DHT22;10704;42.678;23.288;2024-01-30T01:24:14;-0.90;99.90
21092;DHT22;10704;42.678;23.288;2024-01-30T01:26:40;-1.00;99.90
21092;DHT22;10704;42.678;23.288;2024-01-30T01:29:07;-1.00;99.90
21092;DHT22;10704;42.678;23.288;2024-01-30T01:31:40;-1.00;99.90
21092;DHT22;10704;42.678;23.288;2024-01-30T01:34:12;-1.00;99.90
21092;DHT22;10704;42.678;23.288;2024-01-30T01:36:39;-0.90;99.90
21092;DHT22;10704;42.678;23.288;2024-01-30T01:39:05;-0.90;99.90
21092;DHT22;10704;42.678;23.288;2024-01-30T01:41:32;-0.80;99.90
21092;DHT22;10704;42.678;23.288;2024-01-30T01:43:59;-0.80;99.90
21092;DHT22;10704;42.678;23.288;2024-01-30T01:46:30;-0.80;99.90
21092;DHT22;10704;42.678;23.288;2024-01-30T01:48:57;-0.90;99.90
21092;DHT22;10704;42.678;23.288;2024-01-30T01:51:25;-0.90;99.90
21092;DHT22;10704;42.678;23.288;2024-01-30T01:53:53;-1.00;99.90
21092;DHT22;10704;42.678;23.288;2024-01-30T01:56:20;-0.80;99.90
21092;DHT22;10704;42.678;23.288;2024-01-30T01:58:46;-0.70;99.90
21092;DHT22;10704;42.678;23.288;2024-01-30T02:01:13;-0.90;99.90
21092;DHT22;10704;42.678;23.288;2024-01-30T02:03:41;-1.00;99.90
21092;DHT22;10704;42.678;23.288;2024-01-30T02:06:07;-1.00;99.90
21092;DHT22;10704;42.678;23.288;2024-01-30T02:08:33;-1.10;99.90
21092;DHT22;10704;42.678;23.288;2024-01-30T02:11:00;-1.00;99.90
21092;DHT22;10704;42.678;23.288;2024-01-30T02:13:25;-1.00;99.90
21092;DHT22;10704;42.678;23.288;2024-01-30T02:15:51;-1.00;99.90
21092;DHT22;10704;42.678;23.288;2024-01-30T02:18:19;-1.00;99.90
21092;DHT22;10704;42.678;23.288;2024-01-30T02:20:45;-0.90;99.90
21092;DHT22;10704;42.678;23.288;2024-01-30T02:23:12;-0.90;99.90
21092;DHT22;10704;42.678;23.288;2024-01-30T02:25:39;-0.80;99.90
21092;DHT22;10704;42.678;23.288;2024-01-30T02:28:12;-0.80;99.90
21092;DHT22;10704;42.678;23.288;2024-01-30T02:30:39;-0.70;99.90
21092;DHT22;10704;42.678;23.288;2024-01-30T02:33:05;-0.70;99.90
21092;DHT22;10704;42.678;23.288;2024-01-30T02:35:31;-0.70;99.90
21092;DHT22;10704;42.678;23.288;2024-01-30T02:37:57;-0.60;99.90
21092;DHT22;10704;42.678;23.288;2024-01-30T02:40:23;-0.60;99.90
21092;DHT22;10704;42.678;23.288;2024-01-30T02:42:49;-0.60;99.90
21092;DHT22;10704;42.678;23.288;2024-01-30T02:45:16;-0.60;99.90
21092;DHT22;10704;42.678;23.288;2024-01-30T02:47:41;-0.60;99.90
21092;DHT22;10704;42.678;23.288;2024-01-30T02:50:08;-0.60;99.90
21092;DHT22;10704;42.678;23.288;2024-01-30T02:52:34;-0.40;99.90
21092;DHT22;10704;42.678;23.288;2024-01-30T02:55:00;-0.30;99.90
21092;DHT22;10704;42.678;23.288;2024-01-30T02:57:26;-0.30;99.90
21092;DHT22;10704;42.678;23.288;2024-01-30T02:59:52;-0.40;99.90
21092;DHT22;10704;42.678;23.288;2024-01-30T03:02:18;-0.40;99.90
21092;DHT22;10704;42.678;23.288;2024-01-30T03:04:44;-0.40;99.90
21092;DHT22;10704;42.678;23.288;2024-01-30T03:07:10;-0.40;99.90
21092;DHT22;10704;42.678;23.288;2024-01-30T03:09:36;-0.30;99.90
21092;DHT22;10704;42.678;23.288;2024-01-30T03:12:03;-0.30;99.90
21092;DHT22;10704;42.678;23.288;2024-01-30T03:14:31;-0.40;99.90
21092;DHT22;10704;42.678;23.288;2024-01-30T03:16:57;-0.50;99.90
21092;DHT22;10704;42.678;23.288;2024-01-30T03:19:23;-0.50;99.90
21092;DHT22;10704;42.678;23.288;2024-01-30T03:21:50;-0.40;99.90
21092;DHT22;10704;42.678;23.288;2024-01-30T03:24:16;-0.40;99.90
21092;DHT22;10704;42.678;23.288;2024-01-30T03:26:43;-0.50;99.90
21092;DHT22;10704;42.678;23.288;2024-01-30T03:29:09;-0.50;99.90
21092;DHT22;10704;42.678;23.288;2024-01-30T03:31:35;-0.50;99.90
21092;DHT22;10704;42.678;23.288;2024-01-30T03:34:01;-0.50;99.90
21092;DHT22;10704;42.678;23.288;2024-01-30T03:36:27;-0.40;99.90
21092;DHT22;10704;42.678;23.288;2024-01-30T03:38:53;-0.40;99.90
21092;DHT22;10704;42.678;23.288;2024-01-30T03:41:20;-0.40;99.90
21092;DHT22;10704;42.678;23.288;2024-01-30T03:43:47;-0.40;99.90
21092;DHT22;10704;42.678;23.288;2024-01-30T03:46:14;-0.40;99.90
21092;DHT22;10704;42.678;23.288;2024-01-30T03:48:40;-0.40;99.90
21092;DHT22;10704;42.678;23.288;2024-01-30T03:51:06;-0.40;99.90
21092;DHT22;10704;42.678;23.288;2024-01-30T03:53:32;-0.30;99.90
21092;DHT22;10704;42.678;23.288;2024-01-30T03:55:58;-0.20;99.90
21092;DHT22;10704;42.678;23.288;2024-01-30T03:58:24;-0.30;99.90
21092;DHT22;10704;42.678;23.288;2024-01-30T04:00:50;-0.30;99.90
21092;DHT22;10704;42.678;23.288;2024-01-30T04:03:16;-0.30;99.90
21092;DHT22;10704;42.678;23.288;2024-01-30T04:05:42;-0.50;99.90
21092;DHT22;10704;42.678;23.288;2024-01-30T04:08:08;-0.50;99.90
21092;DHT22;10704;42.678;23.288;2024-01-30T04:10:34;-0.50;99.90
21092;DHT22;10704;42.678;23.288;2024-01-30T04:13:00;-0.50;99.90
21092;DHT22;10704;42.678;23.288;2024-01-30T04:15:26;-0.50;99.90
21092;DHT22;10704;42.678;23.288;2024-01-30T04:17:53;-0.50;99.90
21092;DHT22;10704;42.678;23.288;2024-01-30T04:20:19;-0.60;99.90
21092;DHT22;10704;42.678;23.288;2024-01-30T04:22:46;-0.60;99.90
21092;DHT22;10704;42.678;23.288;2024-01-30T04:25:13;-0.60;99.90
21092;DHT22;10704;42.678;23.288;2024-01-30T04:27:39;-0.60;99.90
21092;DHT22;10704;42.678;23.288;2024-01-30T04:30:05;-0.60;99.90
21092;DHT22;10704;42.678;23.288;2024-01-30T04:32:32;-0.60;99.90
21092;DHT22;10704;42.678;23.288;2024-01-30T04:34:58;-0.50;99.90
21092;DHT22;10704;42.678;23.288;2024-01-30T04:37:24;-0.50;99.90
21092;DHT22;10704;42.678;23.288;2024-01-30T04:39:51;-0.50;99.90
21092;DHT22;10704;42.678;23.288;2024-01-30T04:42:17;-0.60;99.90
21092;DHT22;10704;42.678;23.288;2024-01-30T04:44:43;-0.60;99.90
21092;DHT22;10704;42.678;23.288;2024-01-30T04:47:09;-0.50;99.90
21092;DHT22;10704;42.678;23.288;2024-01-30T04:49:40;-0.50;99.90
21092;DHT22;10704;42.678;23.288;2024-01-30T04:52:07;-0.40;99.90
21092;DHT22;10704;42.678;23.288;2024-01-30T04:54:34;-0.60;99.90
21092;DHT22;10704;42.678;23.288;2024-01-30T04:57:04;-0.50;99.90
21092;DHT22;10704;42.678;23.288;2024-01-30T04:59:31;-0.50;99.90
21092;DHT22;10704;42.678;23.288;2024-01-30T05:05:44;-0.50;99.90
21092;DHT22;10704;42.678;23.288;2024-01-30T05:08:10;-0.60;99.90
21092;DHT22;10704;42.678;23.288;2024-01-30T05:10:36;-0.60;99.90
21092;DHT22;10704;42.678;23.288;2024-01-30T05:13:02;-0.60;99.90
21092;DHT22;10704;42.678;23.288;2024-01-30T05:15:28;-0.70;99.90
21092;DHT22;10704;42.678;23.288;2024-01-30T05:17:54;-0.70;99.90
21092;DHT22;10704;42.678;23.288;2024-01-30T05:20:20;-0.70;99.90
21092;DHT22;10704;42.678;23.288;2024-01-30T05:22:46;-0.90;99.90
21092;DHT22;10704;42.678;23.288;2024-01-30T05:25:13;-0.90;99.90
21092;DHT22;10704;42.678;23.288;2024-01-30T05:27:39;-0.90;99.90
21092;DHT22;10704;42.678;23.288;2024-01-30T05:30:06;-0.90;99.90
21092;DHT22;10704;42.678;23.288;2024-01-30T05:32:32;-0.80;99.90
21092;DHT22;10704;42.678;23.288;2024-01-30T05:34:58;-0.80;99.90
21092;DHT22;10704;42.678;23.288;2024-01-30T05:37:24;-0.90;99.90
21092;DHT22;10704;42.678;23.288;2024-01-30T05:39:50;-1.00;99.90
21092;DHT22;10704;42.678;23.288;2024-01-30T05:42:16;-1.00;99.90
21092;DHT22;10704;42.678;23.288;2024-01-30T05:44:42;-1.00;99.90
21092;DHT22;10704;42.678;23.288;2024-01-30T05:47:08;-1.00;99.90
21092;DHT22;10704;42.678;23.288;2024-01-30T05:49:34;-1.20;99.90
21092;DHT22;10704;42.678;23.288;2024-01-30T05:52:03;-1.20;99.90
21092;DHT22;10704;42.678;23.288;2024-01-30T05:54:29;-1.30;99.90
21092;DHT22;10704;42.678;23.288;2024-01-30T05:56:55;-1.40;99.90
21092;DHT22;10704;42.678;23.288;2024-01-30T05:59:21;-1.40;99.90
21092;DHT22;10704;42.678;23.288;2024-01-30T06:01:47;-1.20;99.90
21092;DHT22;10704;42.678;23.288;2024-01-30T06:04:14;-1.20;99.90
21092;DHT22;10704;42.678;23.288;2024-01-30T06:06:40;-1.10;99.90
21092;DHT22;10704;42.678;23.288;2024-01-30T06:09:06;-1.20;99.90
21092;DHT22;10704;42.678;23.288;2024-01-30T06:11:35;-1.40;99.90
21092;DHT22;10704;42.678;23.288;2024-01-30T06:14:01;-1.40;99.90
21092;DHT22;10704;42.678;23.288;2024-01-30T06:16:27;-1.10;99.90
21092;DHT22;10704;42.678;23.288;2024-01-30T06:18:55;-1.20;99.90
21092;DHT22;10704;42.678;23.288;2024-01-30T06:21:22;-1.10;99.90
21092;DHT22;10704;42.678;23.288;2024-01-30T06:23:48;-1.30;99.90
21092;DHT22;10704;42.678;23.288;2024-01-30T06:26:14;-1.20;99.90
21092;DHT22;10704;42.678;23.288;2024-01-30T06:28:40;-1.00;99.90
21092;DHT22;10704;42.678;23.288;2024-01-30T06:31:05;-1.10;99.90
21092;DHT22;10704;42.678;23.288;2024-01-30T06:33:31;-1.00;99.90
21092;DHT22;10704;42.678;23.288;2024-01-30T06:35:57;-0.90;99.90
21092;DHT22;10704;42.678;23.288;2024-01-30T06:38:23;-0.80;99.90
21092;DHT22;10704;42.678;23.288;2024-01-30T06:40:49;-0.60;99.90
21092;DHT22;10704;42.678;23.288;2024-01-30T06:43:15;-0.30;99.90
21092;DHT22;10704;42.678;23.288;2024-01-30T06:45:41;-0.30;99.90
21092;DHT22;10704;42.678;23.288;2024-01-30T06:48:08;-0.20;99.90
21092;DHT22;10704;42.678;23.288;2024-01-30T06:50:34;-0.10;99.90
21092;DHT22;10704;42.678;23.288;2024-01-30T06:53:00;-0.10;99.90
21092;DHT22;10704;42.678;23.288;2024-01-30T06:55:26;-0.20;99.90
21092;DHT22;10704;42.678;23.288;2024-01-30T06:57:52;-0.20;99.90
21092;DHT22;10704;42.678;23.288;2024-01-30T07:00:18;-0.30;99.90
21092;DHT22;10704;42.678;23.288;2024-01-30T07:02:45;-0.20;99.90
21092;DHT22;10704;42.678;23.288;2024-01-30T07:05:11;-0.30;99.90
21092;DHT22;10704;42.678;23.288;2024-01-30T07:07:37;-0.20;99.90
21092;DHT22;10704;42.678;23.288;2024-01-30T07:10:03;-0.20;99.90
21092;DHT22;10704;42.678;23.288;2024-01-30T07:12:30;-0.10;99.90
21092;DHT22;10704;42.678;23.288;2024-01-30T07:14:56;0.00;99.90
21092;DHT22;10704;42.678;23.288;2024-01-30T07:17:24;0.00;99.90
21092;DHT22;10704;42.678;23.288;2024-01-30T07:19:50;0.10;99.90
21092;DHT22;10704;42.678;23.288;2024-01-30T07:22:16;0.30;99.90
21092;DHT22;10704;42.678;23.288;2024-01-30T07:24:43;0.50;99.90
21092;DHT22;10704;42.678;23.288;2024-01-30T07:27:14;0.70;99.90
21092;DHT22;10704;42.678;23.288;2024-01-30T07:29:40;0.80;99.90
21092;DHT22;10704;42.678;23.288;2024-01-30T07:32:06;0.80;99.90
21092;DHT22;10704;42.678;23.288;2024-01-30T07:34:32;0.90;99.90
21092;DHT22;10704;42.678;23.288;2024-01-30T07:36:58;1.20;99.90
21092;DHT22;10704;42.678;23.288;2024-01-30T07:39:24;1.20;99.90
21092;DHT22;10704;42.678;23.288;2024-01-30T07:41:50;1.50;99.20
21092;DHT22;10704;42.678;23.288;2024-01-30T07:44:16;1.70;98.60
21092;DHT22;10704;42.678;23.288;2024-01-30T07:46:41;2.00;97.30
21092;DHT22;10704;42.678;23.288;2024-01-30T07:49:07;1.80;95.60
21092;DHT22;10704;42.678;23.288;2024-01-30T07:51:33;2.10;95.90
21092;DHT22;10704;42.678;23.288;2024-01-30T07:53:59;2.40;95.50
21092;DHT22;10704;42.678;23.288;2024-01-30T07:56:25;2.40;93.70
21092;DHT22;10704;42.678;23.288;2024-01-30T07:58:51;2.40;93.30
21092;DHT22;10704;42.678;23.288;2024-01-30T08:01:17;2.50;93.20
21092;DHT22;10704;42.678;23.288;2024-01-30T08:03:43;2.90;92.50
21092;DHT22;10704;42.678;23.288;2024-01-30T08:06:09;3.10;92.10
21092;DHT22;10704;42.678;23.288;2024-01-30T08:08:35;3.50;91.70
21092;DHT22;10704;42.678;23.288;2024-01-30T08:11:03;3.50;89.90
21092;DHT22;10704;42.678;23.288;2024-01-30T08:13:29;3.50;89.40
21092;DHT22;10704;42.678;23.288;2024-01-30T08:15:55;3.80;89.60
21092;DHT22;10704;42.678;23.288;2024-01-30T08:18:21;4.40;87.70
21092;DHT22;10704;42.678;23.288;2024-01-30T08:20:47;4.70;85.40
21092;DHT22;10704;42.678;23.288;2024-01-30T08:23:13;4.90;84.10
21092;DHT22;10704;42.678;23.288;2024-01-30T08:25:39;5.00;81.80
21092;DHT22;10704;42.678;23.288;2024-01-30T08:28:05;5.30;80.50
21092;DHT22;10704;42.678;23.288;2024-01-30T08:30:31;5.10;79.60
21092;DHT22;10704;42.678;23.288;2024-01-30T08:32:57;5.70;80.00
21092;DHT22;10704;42.678;23.288;2024-01-30T08:35:22;6.20;77.50
21092;DHT22;10704;42.678;23.288;2024-01-30T08:37:48;6.80;75.00
21092;DHT22;10704;42.678;23.288;2024-01-30T08:40:14;6.80;73.60
21092;DHT22;10704;42.678;23.288;2024-01-30T08:42:40;6.70;71.50
21092;DHT22;10704;42.678;23.288;2024-01-30T08:45:06;6.80;70.80
21092;DHT22;10704;42.678;23.288;2024-01-30T08:47:32;6.90;71.70
21092;DHT22;10704;42.678;23.288;2024-01-30T08:49:59;7.20;70.30
21092;DHT22;10704;42.678;23.288;2024-01-30T08:52:25;7.30;68.70
21092;DHT22;10704;42.678;23.288;2024-01-30T08:54:51;6.90;70.30
21092;DHT22;10704;42.678;23.288;2024-01-30T08:57:16;7.00;70.30
21092;DHT22;10704;42.678;23.288;2024-01-30T08:59:42;7.50;68.90
21092;DHT22;10704;42.678;23.288;2024-01-30T09:02:11;8.00;67.40
21092;DHT22;10704;42.678;23.288;2024-01-30T09:04:39;7.50;67.60
21092;DHT22;10704;42.678;23.288;2024-01-30T09:07:05;6.60;68.80
21092;DHT22;10704;42.678;23.288;2024-01-30T09:09:34;7.00;69.60
21092;DHT22;10704;42.678;23.288;2024-01-30T09:12:00;7.40;69.00
21092;DHT22;10704;42.678;23.288;2024-01-30T09:14:30;7.00;68.90
21092;DHT22;10704;42.678;23.288;2024-01-30T09:16:56;5.70;71.40
21092;DHT22;10704;42.678;23.288;2024-01-30T09:19:22;4.80;75.70
21092;DHT22;10704;42.678;23.288;2024-01-30T09:21:48;4.40;77.70
21092;DHT22;10704;42.678;23.288;2024-01-30T09:24:14;3.80;80.50
21092;DHT22;10704;42.678;23.288;2024-01-30T09:26:40;4.50;81.90
21092;DHT22;10704;42.678;23.288;2024-01-30T09:29:06;6.20;77.70
21092;DHT22;10704;42.678;23.288;2024-01-30T09:31:32;6.90;73.40
21092;DHT22;10704;42.678;23.288;2024-01-30T09:33:58;7.00;72.70
21092;DHT22;10704;42.678;23.288;2024-01-30T09:36:24;7.80;71.80
21092;DHT22;10704;42.678;23.288;2024-01-30T09:38:50;9.40;67.40
21092;DHT22;10704;42.678;23.288;2024-01-30T09:41:18;9.90;65.10
21092;DHT22;10704;42.678;23.288;2024-01-30T09:43:47;9.80;63.30
21092;DHT22;10704;42.678;23.288;2024-01-30T09:46:17;9.60;62.80
21092;DHT22;10704;42.678;23.288;2024-01-30T09:48:48;8.50;64.90
21092;DHT22;10704;42.678;23.288;2024-01-30T09:51:15;8.90;65.30
21092;DHT22;10704;42.678;23.288;2024-01-30T09:53:43;8.80;64.30
21092;DHT22;10704;42.678;23.288;2024-01-30T09:56:13;8.70;64.00
21092;DHT22;10704;42.678;23.288;2024-01-30T09:58:39;7.80;65.10
21092;DHT22;10704;42.678;23.288;2024-01-30T10:01:06;6.90;67.10
21092;DHT22;10704;42.678;23.288;2024-01-30T10:03:32;6.70;68.10
21092;DHT22;10704;42.678;23.288;2024-01-30T10:05:58;6.00;69.70
21092;DHT22;10704;42.678;23.288;2024-01-30T10:08:26;6.10;71.40
21092;DHT22;10704;42.678;23.288;2024-01-30T10:10:52;6.80;69.60
21092;DHT22;10704;42.678;23.288;2024-01-30T10:13:18;7.60;68.10
21092;DHT22;10704;42.678;23.288;2024-01-30T10:15:45;9.10;64.80
21092;DHT22;10704;42.678;23.288;2024-01-30T10:18:11;10.10;62.20
21092;DHT22;10704;42.678;23.288;2024-01-30T10:20:37;11.00;60.10
21092;DHT22;10704;42.678;23.288;2024-01-30T10:23:03;10.70;58.50
21092;DHT22;10704;42.678;23.288;2024-01-30T10:25:33;8.90;60.30
21092;DHT22;10704;42.678;23.288;2024-01-30T10:27:59;7.90;64.00
21092;DHT22;10704;42.678;23.288;2024-01-30T10:30:26;7.50;65.20
21092;DHT22;10704;42.678;23.288;2024-01-30T10:32:52;7.60;65.70
21092;DHT22;10704;42.678;23.288;2024-01-30T10:35:18;8.20;64.30
21092;DHT22;10704;42.678;23.288;2024-01-30T10:37:47;8.40;63.50
21092;DHT22;10704;42.678;23.288;2024-01-30T10:40:14;7.60;64.30
21092;DHT22;10704;42.678;23.288;2024-01-30T10:42:44;6.70;65.80
21092;DHT22;10704;42.678;23.288;2024-01-30T10:45:12;5.80;68.90
21092;DHT22;10704;42.678;23.288;2024-01-30T10:47:40;6.00;69.70
21092;DHT22;10704;42.678;23.288;2024-01-30T10:50:08;6.30;68.40
21092;DHT22;10704;42.678;23.288;2024-01-30T10:52:34;6.70;69.30
21092;DHT22;10704;42.678;23.288;2024-01-30T10:55:04;7.40;66.20
21092;DHT22;10704;42.678;23.288;2024-01-30T10:57:34;7.60;66.30
21092;DHT22;10704;42.678;23.288;2024-01-30T11:00:06;9.30;63.10
21092;DHT22;10704;42.678;23.288;2024-01-30T11:02:43;10.50;59.80
21092;DHT22;10704;42.678;23.288;2024-01-30T11:05:13;10.60;57.80
21092;DHT22;10704;42.678;23.288;2024-01-30T11:07:41;9.20;59.50
21092;DHT22;10704;42.678;23.288;2024-01-30T11:10:07;8.60;61.10
21092;DHT22;10704;42.678;23.288;2024-01-30T11:12:39;9.50;61.50
21092;DHT22;10704;42.678;23.288;2024-01-30T11:15:18;10.00;59.30
21092;DHT22;10704;42.678;23.288;2024-01-30T11:20:27;8.90;59.70
21092;DHT22;10704;42.678;23.288;2024-01-30T11:22:56;7.80;61.80
21092;DHT22;10704;42.678;23.288;2024-01-30T11:25:23;7.30;63.70
21092;DHT22;10704;42.678;23.288;2024-01-30T11:27:54;6.90;66.20
21092;DHT22;10704;42.678;23.288;2024-01-30T11:30:31;7.10;65.50
21092;DHT22;10704;42.678;23.288;2024-01-30T11:33:08;6.00;67.70
21092;DHT22;10704;42.678;23.288;2024-01-30T11:38:05;6.40;69.80
21092;DHT22;10704;42.678;23.288;2024-01-30T11:40:32;8.00;65.80
21092;DHT22;10704;42.678;23.288;2024-01-30T11:43:00;10.10;61.10
21092;DHT22;10704;42.678;23.288;2024-01-30T11:45:27;10.50;58.80
21092;DHT22;10704;42.678;23.288;2024-01-30T11:47:54;10.30;58.40
21092;DHT22;10704;42.678;23.288;2024-01-30T11:50:20;9.20;59.60
21092;DHT22;10704;42.678;23.288;2024-01-30T11:52:47;8.00;61.70
21092;DHT22;10704;42.678;23.288;2024-01-30T11:55:14;7.30;63.90
21092;DHT22;10704;42.678;23.288;2024-01-30T11:57:40;7.40;65.00
21092;DHT22;10704;42.678;23.288;2024-01-30T12:00:14;7.50;64.70
21092;DHT22;10704;42.678;23.288;2024-01-30T12:02:41;8.30;64.30
21092;DHT22;10704;42.678;23.288;2024-01-30T12:05:07;9.00;62.70
21092;DHT22;10704;42.678;23.288;2024-01-30T12:07:33;10.20;59.80
21092;DHT22;10704;42.678;23.288;2024-01-30T12:10:00;11.00;57.90
21092;DHT22;10704;42.678;23.288;2024-01-30T12:12:27;11.10;56.80
21092;DHT22;10704;42.678;23.288;2024-01-30T12:14:54;10.80;57.50
21092;DHT22;10704;42.678;23.288;2024-01-30T12:17:31;11.80;56.30
21092;DHT22;10704;42.678;23.288;2024-01-30T12:20:07;11.20;55.80
21092;DHT22;10704;42.678;23.288;2024-01-30T12:22:51;11.50;56.40
21092;DHT22;10704;42.678;23.288;2024-01-30T12:25:20;11.70;55.60
21092;DHT22;10704;42.678;23.288;2024-01-30T12:27:47;11.50;55.70
21092;DHT22;10704;42.678;23.288;2024-01-30T12:30:19;11.10;55.80
21092;DHT22;10704;42.678;23.288;2024-01-30T12:32:47;10.40;56.90
21092;DHT22;10704;42.678;23.288;2024-01-30T12:35:19;10.10;57.30
21092;DHT22;10704;42.678;23.288;2024-01-30T12:37:46;9.90;57.50
21092;DHT22;10704;42.678;23.288;2024-01-30T12:40:14;10.10;57.20
21092;DHT22;10704;42.678;23.288;2024-01-30T12:42:45;9.90;57.50
21092;DHT22;10704;42.678;23.288;2024-01-30T12:45:14;10.10;57.50
21092;DHT22;10704;42.678;23.288;2024-01-30T12:47:41;10.50;56.90
21092;DHT22;10704;42.678;23.288;2024-01-30T12:50:08;10.30;55.90
21092;DHT22;10704;42.678;23.288;2024-01-30T12:52:35;10.00;57.00
21092;DHT22;10704;42.678;23.288;2024-01-30T12:55:01;10.00;57.40
21092;DHT22;10704;42.678;23.288;2024-01-30T12:57:27;10.10;57.40
21092;DHT22;10704;42.678;23.288;2024-01-30T12:59:53;10.00;56.90
21092;DHT22;10704;42.678;23.288;2024-01-30T13:02:19;10.20;56.80
21092;DHT22;10704;42.678;23.288;2024-01-30T13:04:45;9.90;57.20
21092;DHT22;10704;42.678;23.288;2024-01-30T13:07:11;9.90;57.00
21092;DHT22;10704;42.678;23.288;2024-01-30T13:09:37;9.60;57.20
21092;DHT22;10704;42.678;23.288;2024-01-30T13:12:04;9.70;58.00
21092;DHT22;10704;42.678;23.288;2024-01-30T13:14:30;9.30;57.20
21092;DHT22;10704;42.678;23.288;2024-01-30T13:16:56;9.70;58.00
21092;DHT22;10704;42.678;23.288;2024-01-30T13:19:22;9.80;57.00
21092;DHT22;10704;42.678;23.288;2024-01-30T13:21:48;10.00;56.90
21092;DHT22;10704;42.678;23.288;2024-01-30T13:24:14;10.30;57.10
21092;DHT22;10704;42.678;23.288;2024-01-30T13:26:41;9.90;56.80
21092;DHT22;10704;42.678;23.288;2024-01-30T13:29:08;9.90;57.20
21092;DHT22;10704;42.678;23.288;2024-01-30T13:31:34;9.80;57.60
21092;DHT22;10704;42.678;23.288;2024-01-30T13:34:00;9.60;58.20
21092;DHT22;10704;42.678;23.288;2024-01-30T13:36:26;9.60;58.00
21092;DHT22;10704;42.678;23.288;2024-01-30T13:38:52;9.10;58.20
21092;DHT22;10704;42.678;23.288;2024-01-30T13:41:18;8.70;59.30
21092;DHT22;10704;42.678;23.288;2024-01-30T13:43:45;9.00;59.90
21092;DHT22;10704;42.678;23.288;2024-01-30T13:46:11;8.50;59.50
21092;DHT22;10704;42.678;23.288;2024-01-30T13:48:37;8.40;60.70
21092;DHT22;10704;42.678;23.288;2024-01-30T13:51:03;8.60;60.50
21092;DHT22;10704;42.678;23.288;2024-01-30T13:53:29;8.60;60.70
21092;DHT22;10704;42.678;23.288;2024-01-30T13:55:55;8.90;59.90
21092;DHT22;10704;42.678;23.288;2024-01-30T13:58:21;9.10;59.40
21092;DHT22;10704;42.678;23.288;2024-01-30T14:00:47;9.10;59.50
21092;DHT22;10704;42.678;23.288;2024-01-30T14:03:13;9.20;59.20
21092;DHT22;10704;42.678;23.288;2024-01-30T14:05:39;9.10;59.30
21092;DHT22;10704;42.678;23.288;2024-01-30T14:08:06;8.90;59.80
21092;DHT22;10704;42.678;23.288;2024-01-30T14:10:33;9.00;59.50
21092;DHT22;10704;42.678;23.288;2024-01-30T14:12:59;8.80;59.80
21092;DHT22;10704;42.678;23.288;2024-01-30T14:15:25;8.40;59.90
21092;DHT22;10704;42.678;23.288;2024-01-30T14:17:51;8.30;60.70
21092;DHT22;10704;42.678;23.288;2024-01-30T14:20:17;8.60;60.40
21092;DHT22;10704;42.678;23.288;2024-01-30T14:22:43;8.60;60.00
21092;DHT22;10704;42.678;23.288;2024-01-30T14:25:09;8.50;60.40
21092;DHT22;10704;42.678;23.288;2024-01-30T14:27:36;8.60;60.40
21092;DHT22;10704;42.678;23.288;2024-01-30T14:30:02;8.60;60.50
21092;DHT22;10704;42.678;23.288;2024-01-30T14:32:29;8.60;60.50
21092;DHT22;10704;42.678;23.288;2024-01-30T14:34:55;8.90;60.50
21092;DHT22;10704;42.678;23.288;2024-01-30T14:37:21;8.20;60.80
21092;DHT22;10704;42.678;23.288;2024-01-30T14:39:48;7.60;62.60
21092;DHT22;10704;42.678;23.288;2024-01-30T14:42:14;7.30;62.80
21092;DHT22;10704;42.678;23.288;2024-01-30T14:44:41;6.30;64.00
21092;DHT22;10704;42.678;23.288;2024-01-30T14:47:08;5.70;66.30
21092;DHT22;10704;42.678;23.288;2024-01-30T14:49:34;5.20;69.00
21092;DHT22;10704;42.678;23.288;2024-01-30T14:52:00;4.90;69.70
21092;DHT22;10704;42.678;23.288;2024-01-30T14:54:27;4.60;70.90
21092;DHT22;10704;42.678;23.288;2024-01-30T14:56:53;4.10;72.80
21092;DHT22;10704;42.678;23.288;2024-01-30T14:59:19;4.10;74.20
21092;DHT22;10704;42.678;23.288;2024-01-30T15:01:45;3.80;74.40
21092;DHT22;10704;42.678;23.288;2024-01-30T15:04:11;3.60;75.50
21092;DHT22;10704;42.678;23.288;2024-01-30T15:06:37;3.60;76.10
21092;DHT22;10704;42.678;23.288;2024-01-30T15:09:03;3.20;77.30
21092;DHT22;10704;42.678;23.288;2024-01-30T15:11:30;2.90;78.90
21092;DHT22;10704;42.678;23.288;2024-01-30T15:13:58;2.80;80.20
21092;DHT22;10704;42.678;23.288;2024-01-30T15:16:24;2.60;81.30
21092;DHT22;10704;42.678;23.288;2024-01-30T15:18:50;2.60;82.00
21092;DHT22;10704;42.678;23.288;2024-01-30T15:21:16;2.30;82.60
21092;DHT22;10704;42.678;23.288;2024-01-30T15:23:46;2.20;84.10
21092;DHT22;10704;42.678;23.288;2024-01-30T15:26:11;2.00;85.20
21092;DHT22;10704;42.678;23.288;2024-01-30T15:28:38;1.80;86.10
21092;DHT22;10704;42.678;23.288;2024-01-30T15:31:06;1.60;87.70
21092;DHT22;10704;42.678;23.288;2024-01-30T15:33:32;1.40;89.40